Time;durP1;ratioP1;P1;durP2;ratioP2;P2;SDS_P1;SDS_P2;PMS_P1;PMS_P2;Temp;Humidity;BMP_temperature;BMP_pressure;BME280_temperature;BME280_humidity;BME280_pressure;Samples;Min_cycle;Max_cycle;Signal;HPM_P1;HPM_P2
2023/04/26 00:00:46;;;;;;;15.05;11.70;;;;;;;12.74;100.00;102468.47;5111689;28;20395;-75
2023/04/26 00:03:14;;;;;;;13.57;11.60;;;;;;;13.20;100.00;102555.47;5112908;28;20122;-75
2023/04/26 00:05:39;;;;;;;14.65;12.35;;;;;;;12.82;100.00;102494.88;5145671;27;20055;-74
2023/04/26 00:08:05;;;;;;;16.13;13.00;;;;;;;13.30;100.00;102587.88;5145826;27;20036;-75
2023/04/26 00:10:30;;;;;;;15.38;13.63;;;;;;;12.54;100.00;102443.75;5112741;28;20031;-75
2023/04/26 00:12:56;;;;;;;16.38;13.15;;;;;;;13.05;100.00;102564.78;5111225;28;20467;-75
2023/04/26 00:15:21;;;;;;;16.23;13.38;;;;;;;12.95;100.00;102570.69;5112193;28;20134;-75
2023/04/26 00:17:47;;;;;;;14.90;13.30;;;;;;;12.75;100.00;102574.00;5112116;28;20510;-76
2023/04/26 00:20:13;;;;;;;14.90;13.02;;;;;;;13.13;100.00;102648.28;5111607;28;20032;-74
2023/04/26 00:22:38;;;;;;;14.38;12.18;;;;;;;13.35;100.00;102708.84;5112367;28;20118;-75
2023/04/26 00:25:04;;;;;;;15.13;12.40;;;;;;;13.22;100.00;102694.28;5112509;28;20410;-74
2023/04/26 00:27:30;;;;;;;14.38;12.35;;;;;;;13.14;100.00;102678.06;5110874;28;20039;-76
2023/04/26 00:29:56;;;;;;;15.15;13.45;;;;;;;13.10;100.00;102667.00;5111509;28;20027;-76
2023/04/26 00:32:21;;;;;;;14.68;12.52;;;;;;;12.85;100.00;102639.59;5110320;28;20115;-75
2023/04/26 00:34:47;;;;;;;15.82;13.25;;;;;;;13.30;100.00;102713.06;5101602;28;20044;-76
2023/04/26 00:37:12;;;;;;;17.27;14.25;;;;;;;12.91;100.00;102622.59;5091013;28;20028;-74
2023/04/26 00:39:38;;;;;;;16.60;12.20;;;;;;;13.12;100.00;102646.56;5091443;28;20411;-75
2023/04/26 00:42:03;;;;;;;14.95;12.18;;;;;;;12.80;100.00;102602.94;5090705;28;20089;-75
2023/04/26 00:44:29;;;;;;;12.00;10.73;;;;;;;12.89;100.00;102613.22;5090796;28;20060;-75
2023/04/26 00:46:54;;;;;;;12.70;11.20;;;;;;;12.86;100.00;102595.31;5090633;28;20031;-75
2023/04/26 00:49:23;;;;;;;14.23;11.38;;;;;;;13.14;100.00;102630.41;5091836;28;20101;-75
2023/04/26 00:51:50;;;;;;;13.85;10.82;;;;;;;13.26;100.00;102644.91;5091545;28;20085;-75
2023/04/26 00:54:19;;;;;;;13.10;11.70;;;;;;;13.40;100.00;102639.03;5091746;28;20028;-75
2023/04/26 00:56:45;;;;;;;13.52;12.05;;;;;;;13.12;100.00;102573.34;5091696;28;20039;-75
2023/04/26 00:59:10;;;;;;;15.77;11.57;;;;;;;12.93;100.00;102520.47;5092028;28;20024;-75
2023/04/26 01:01:36;;;;;;;14.05;11.68;;;;;;;12.99;100.00;102517.94;5090949;28;20181;-76
2023/04/26 01:04:03;;;;;;;12.18;10.88;;;;;;;13.37;100.00;102557.22;5091271;28;20034;-74
2023/04/26 01:06:33;;;;;;;12.50;10.80;;;;;;;12.71;100.00;102429.34;5108147;28;20047;-75
2023/04/26 01:09:07;;;;;;;12.43;10.57;;;;;;;12.80;100.00;102429.34;5112378;28;20031;-75
2023/04/26 01:11:34;;;;;;;16.30;9.63;;;;;;;13.02;100.00;102459.19;5094150;28;20032;-75
2023/04/26 01:14:01;;;;;;;11.73;9.02;;;;;;;12.80;100.00;102409.78;5110914;28;20117;-76
2023/04/26 01:16:27;;;;;;;13.15;8.43;;;;;;;13.10;100.00;102457.53;5114210;28;20153;-76
2023/04/26 01:18:53;;;;;;;9.25;7.47;;;;;;;12.64;100.00;102366.34;5132617;28;20070;-76
2023/04/26 01:21:21;;;;;;;7.95;7.15;;;;;;;12.91;100.00;102389.38;5132388;28;20497;-76
2023/04/26 01:23:46;;;;;;;9.52;8.50;;;;;;;13.04;100.00;102424.31;5132538;28;20019;-75
2023/04/26 01:26:12;;;;;;;10.13;8.02;;;;;;;12.99;100.00;102391.06;5131687;28;20054;-75
2023/04/26 01:28:37;;;;;;;11.80;10.57;;;;;;;12.42;100.00;102288.06;5113882;28;20386;-76
2023/04/26 01:31:03;;;;;;;12.63;10.90;;;;;;;12.58;100.00;102310.19;5114003;28;20516;-74
2023/04/26 01:33:28;;;;;;;13.45;10.98;;;;;;;13.05;100.00;102327.25;5113582;28;20031;-74
2023/04/26 01:35:54;;;;;;;11.32;10.13;;;;;;;12.98;100.00;102291.50;5113772;28;20031;-73
2023/04/26 01:38:19;;;;;;;13.52;9.45;;;;;;;12.96;100.00;102281.28;5131271;28;20046;-73
2023/04/26 01:40:45;;;;;;;12.25;9.80;;;;;;;12.68;100.00;102215.75;5114361;28;20118;-74
2023/04/26 01:43:10;;;;;;;13.35;9.45;;;;;;;12.76;100.00;102213.19;5132152;28;20095;-76
2023/04/26 01:45:36;;;;;;;11.90;9.75;;;;;;;12.82;100.00;102215.75;5132027;28;20021;-76
2023/04/26 01:48:01;;;;;;;13.15;9.88;;;;;;;12.69;100.00;102183.44;5114141;28;20354;-75
2023/04/26 01:50:27;;;;;;;11.60;10.40;;;;;;;12.80;100.00;102177.47;5132016;28;20047;-75
2023/04/26 01:52:52;;;;;;;10.98;9.50;;;;;;;12.95;100.00;102186.81;5112979;28;20023;-77
2023/04/26 01:55:18;;;;;;;12.13;9.23;;;;;;;13.01;100.00;102174.03;5113310;28;20038;-74
2023/04/26 01:57:43;;;;;;;12.40;9.50;;;;;;;12.91;100.00;102128.94;5113111;28;20031;-73
2023/04/26 02:00:09;;;;;;;14.20;9.43;;;;;;;12.87;100.00;102122.16;5131764;28;20029;-73
2023/04/26 02:02:34;;;;;;;10.75;8.85;;;;;;;12.66;100.00;102059.22;5131450;28;20060;-74
2023/04/26 02:05:00;;;;;;;13.40;8.80;;;;;;;12.77;100.00;102044.75;5115095;27;20051;-75
2023/04/26 02:07:25;;;;;;;11.23;8.63;;;;;;;12.59;100.00;102005.66;5135020;27;20027;-75
2023/04/26 02:09:50;;;;;;;10.55;7.80;;;;;;;12.69;100.00;101992.03;5117009;27;20035;-75
2023/04/26 02:12:16;;;;;;;11.20;7.88;;;;;;;12.71;100.00;102026.91;5117029;27;20520;-74
2023/04/26 02:14:41;;;;;;;9.60;8.52;;;;;;;12.82;100.00;102024.28;5134849;27;20042;-74
2023/04/26 02:17:10;;;;;;;11.27;8.68;;;;;;;12.47;100.00;101940.22;5117268;27;20029;-73
2023/04/26 02:19:35;;;;;;;13.32;10.65;;;;;;;12.46;100.00;101933.41;5113675;28;20088;-75
2023/04/26 02:22:02;;;;;;;13.15;10.25;;;;;;;12.40;100.00;101909.66;5130909;27;20637;-76
2023/04/26 02:24:28;;;;;;;13.90;10.55;;;;;;;12.77;100.00;101944.34;5150532;27;20034;-76
2023/04/26 02:26:54;;;;;;;13.15;11.05;;;;;;;12.43;100.00;101853.50;5116760;27;20023;-76
2023/04/26 02:29:19;;;;;;;15.50;10.45;;;;;;;12.84;100.00;101908.56;5116579;27;20465;-74
2023/04/26 02:31:44;;;;;;;13.80;10.43;;;;;;;12.82;100.00;101299.38;5111377;28;20039;-74
2023/04/26 02:34:11;;;;;;;23.25;14.05;;;;;;;12.58;100.00;101270.00;5121534;27;20618;-74
2023/04/26 02:36:36;;;;;;;25.17;15.63;;;;;;;12.67;100.00;101302.19;5114309;28;20032;-75
2023/04/26 02:39:02;;;;;;;25.88;16.60;;;;;;;12.39;100.00;101267.75;5114243;28;20034;-75
2023/04/26 02:41:30;;;;;;;27.67;15.00;;;;;;;12.34;100.00;101300.13;5095774;28;20027;-75
2023/04/26 02:43:56;;;;;;;27.23;15.55;;;;;;;12.24;100.00;101344.47;5129915;27;20032;-75
2023/04/26 02:46:21;;;;;;;29.05;16.98;;;;;;;12.24;100.00;101372.50;5113935;28;20032;-75
2023/04/26 02:48:46;;;;;;;27.90;16.80;;;;;;;12.72;100.00;101473.91;5114420;28;20023;-74
2023/04/26 02:51:12;;;;;;;30.20;17.40;;;;;;;11.95;100.00;101399.16;5095416;28;20024;-73
2023/04/26 02:53:38;;;;;;;31.30;17.45;;;;;;;12.56;100.00;101548.94;5095880;28;20035;-74
2023/04/26 02:56:03;;;;;;;33.25;18.65;;;;;;;12.24;100.00;101540.81;5095934;28;20038;-75
2023/04/26 02:58:29;;;;;;;33.72;18.92;;;;;;;12.02;100.00;101527.41;5113896;28;20027;-75
2023/04/26 03:00:57;;;;;;;35.17;22.70;;;;;;;12.30;100.00;101624.91;5113556;28;20061;-74
2023/04/26 03:03:23;;;;;;;39.90;22.25;;;;;;;12.54;100.00;101698.69;5114041;28;20470;-75
2023/04/26 03:05:50;;;;;;;34.13;18.88;;;;;;;12.03;100.00;101621.72;5091996;28;20051;-75
2023/04/26 03:08:16;;;;;;;36.25;19.45;;;;;;;12.55;100.00;101736.06;5126504;27;20090;-76
2023/04/26 03:10:44;;;;;;;35.72;19.77;;;;;;;12.21;100.00;101712.50;5092627;28;20427;-75
2023/04/26 03:13:09;;;;;;;33.05;19.20;;;;;;;12.32;100.00;101794.06;5109669;28;20078;-74
2023/04/26 03:15:35;;;;;;;35.30;21.05;;;;;;;12.70;100.00;101864.41;5111812;28;20063;-74
2023/04/26 03:18:00;;;;;;;33.70;21.35;;;;;;;12.42;100.00;101823.75;5112218;28;20570;-74
2023/04/26 03:20:26;;;;;;;34.08;19.48;;;;;;;12.58;100.00;101851.72;5113001;28;20027;-73
2023/04/26 03:22:51;;;;;;;30.05;17.92;;;;;;;12.50;100.00;101867.94;5099367;28;20036;-73
2023/04/26 03:25:17;;;;;;;30.58;20.67;;;;;;;12.60;100.00;101895.06;5091321;28;20097;-74
2023/04/26 03:27:42;;;;;;;26.33;17.73;;;;;;;12.59;100.00;101913.81;5101868;27;20118;-75
2023/04/26 03:30:08;;;;;;;28.20;17.80;;;;;;;12.53;100.00;101927.44;5106460;27;20038;-76
2023/04/26 03:32:34;;;;;;;27.42;17.42;;;;;;;12.68;100.00;101950.34;5126859;27;20081;-76
2023/04/26 03:35:00;;;;;;;22.23;15.95;;;;;;;12.60;100.00;101901.03;5132390;27;20108;-78
2023/04/26 03:37:25;;;;;;;30.80;17.77;;;;;;;12.09;100.00;101861.31;5131944;27;20474;-73
2023/04/26 03:39:52;;;;;;;26.45;16.77;;;;;;;12.27;100.00;101885.03;5131476;27;20038;-74
2023/04/26 03:42:19;;;;;;;27.27;17.50;;;;;;;12.53;100.00;101950.41;5119474;27;20088;-74
2023/04/26 03:44:44;;;;;;;26.10;17.13;;;;;;;12.58;100.00;101946.13;5108360;28;20027;-73
2023/04/26 03:47:09;;;;;;;28.23;19.08;;;;;;;12.50;100.00;101916.41;5112559;28;20134;-73
2023/04/26 03:49:35;;;;;;;27.05;16.83;;;;;;;12.60;100.00;101936.75;5119020;27;20035;-73
2023/04/26 03:52:00;;;;;;;27.33;18.15;;;;;;;12.66;100.00;101912.91;5125477;27;20027;-76
2023/04/26 03:54:26;;;;;;;28.00;16.95;;;;;;;12.41;100.00;101827.16;5111484;28;20065;-73
2023/04/26 03:56:51;;;;;;;49.00;27.45;;;;;;;12.65;100.00;101819.34;5112156;28;20088;-76
2023/04/26 03:59:17;;;;;;;28.05;18.45;;;;;;;12.73;100.00;101812.50;5146311;27;20500;-76
2023/04/26 04:01:42;;;;;;;25.52;16.08;;;;;;;12.66;100.00;101785.31;5111333;28;20043;-73
2023/04/26 04:04:08;;;;;;;28.80;16.67;;;;;;;12.32;100.00;101641.03;5111095;28;20748;-74
2023/04/26 04:06:34;;;;;;;26.75;17.10;;;;;;;12.13;100.00;101664.13;5129416;27;20043;-78
2023/04/26 04:08:59;;;;;;;32.72;21.20;;;;;;;12.26;100.00;101738.81;5133680;27;20035;-77
2023/04/26 04:11:24;;;;;;;31.98;21.20;;;;;;;12.59;100.00;101821.94;5114576;27;20033;-77
2023/04/26 04:13:50;;;;;;;28.98;19.15;;;;;;;12.24;100.00;101772.84;5133280;27;20039;-75
2023/04/26 04:16:15;;;;;;;28.27;17.27;;;;;;;12.35;100.00;101806.78;5132012;27;20084;-75
2023/04/26 04:18:41;;;;;;;24.58;16.15;;;;;;;12.72;100.00;101870.34;5132437;27;20543;-78
2023/04/26 04:21:06;;;;;;;18.98;11.88;;;;;;;13.57;100.00;101885.88;5131522;27;20060;-76
2023/04/26 04:23:32;;;;;;;23.83;14.88;;;;;;;13.11;100.00;101935.66;5131737;27;20050;-77
2023/04/26 04:25:57;;;;;;;23.35;17.08;;;;;;;12.83;100.00;101950.28;5131549;27;20113;-73
2023/04/26 04:28:22;;;;;;;27.70;17.42;;;;;;;12.49;100.00;101919.81;5130836;27;20029;-76
2023/04/26 04:30:48;;;;;;;27.63;17.88;;;;;;;12.44;100.00;101990.44;5131498;27;20394;-74
2023/04/26 04:33:15;;;;;;;28.90;18.88;;;;;;;12.62;100.00;101993.75;5130957;27;20054;-73
2023/04/26 04:35:41;;;;;;;22.30;16.20;;;;;;;12.50;100.00;102029.50;5131434;27;20035;-75
2023/04/26 04:38:07;;;;;;;14.32;10.85;;;;;;;12.17;100.00;101965.84;5130793;27;20023;-75
2023/04/26 04:40:32;;;;;;;13.98;9.73;;;;;;;12.52;100.00;102009.13;5131679;27;20027;-75
2023/04/26 04:43:02;;;;;;;13.60;10.02;;;;;;;12.47;100.00;102038.88;5132763;27;20115;-76
2023/04/26 04:45:27;;;;;;;13.32;9.88;;;;;;;12.30;100.00;102038.06;5133090;27;20026;-73
2023/04/26 04:47:53;;;;;;;13.85;8.95;;;;;;;12.32;100.00;101993.00;5131663;27;20031;-76
2023/04/26 04:50:19;;;;;;;13.02;9.00;;;;;;;12.04;100.00;101979.47;5131670;27;20542;-76
2023/04/26 04:52:45;;;;;;;10.50;8.95;;;;;;;12.34;100.00;101993.84;5132400;27;20031;-74
2023/04/26 04:55:11;;;;;;;12.02;9.35;;;;;;;12.16;100.00;101942.03;5129633;27;20041;-77
2023/04/26 04:57:37;;;;;;;14.15;10.13;;;;;;;12.59;100.00;102044.81;5113429;28;20337;-76
2023/04/26 05:00:08;;;;;;;12.18;10.10;;;;;;;12.16;100.00;102000.69;5114301;28;20031;-76
2023/04/26 05:02:35;;;;;;;;;;;;;;;12.72;100.00;102060.91;5115213;28;20027;-75
2023/04/26 05:05:03;;;;;;;14.57;10.73;;;;;;;12.07;100.00;101979.44;5111781;28;19907;-76
2023/04/26 05:07:30;;;;;;;15.55;13.85;;;;;;;12.64;100.00;102042.22;5110636;28;20130;-77
2023/04/26 05:09:56;;;;;;;14.82;12.02;;;;;;;11.88;100.00;101953.16;5110884;28;20044;-76
2023/04/26 05:12:21;;;;;;;11.20;9.88;;;;;;;12.66;100.00;102053.28;5110266;28;20031;-76
2023/04/26 05:14:50;;;;;;;14.48;10.18;;;;;;;12.27;100.00;102038.91;5109885;28;20122;-74
2023/04/26 05:17:15;;;;;;;11.20;9.30;;;;;;;12.09;100.00;102001.56;5111107;28;20049;-75
2023/04/26 05:19:40;;;;;;;11.40;10.07;;;;;;;12.41;100.00;102016.78;5110917;28;20027;-74
2023/04/26 05:22:06;;;;;;;11.00;9.80;;;;;;;12.63;100.00;102055.84;5111531;28;20027;-74
2023/04/26 05:24:31;;;;;;;13.68;10.32;;;;;;;12.71;100.00;102042.22;5110086;28;20092;-74
2023/04/26 05:26:58;;;;;;;18.45;14.27;;;;;;;12.55;100.00;102057.56;5109673;28;20028;-75
2023/04/26 05:29:25;;;;;;;14.95;12.40;;;;;;;12.32;100.00;101975.16;5111524;28;20027;-74
2023/04/26 05:31:50;;;;;;;14.85;12.70;;;;;;;12.72;100.00;102051.56;5110291;28;20023;-74
2023/04/26 05:34:15;;;;;;;13.38;11.23;;;;;;;12.40;100.00;102002.31;5110738;28;20031;-73
2023/04/26 05:36:41;;;;;;;12.52;10.75;;;;;;;12.58;100.00;102040.53;5111016;28;20028;-74
2023/04/26 05:39:07;;;;;;;13.90;10.50;;;;;;;12.69;100.00;102050.72;5113292;28;20114;-74
2023/04/26 05:41:32;;;;;;;13.55;11.10;;;;;;;12.16;100.00;101995.56;5114115;28;20046;-75
2023/04/26 05:43:58;;;;;;;11.80;10.35;;;;;;;12.62;100.00;102069.44;5115291;28;20486;-75
2023/04/26 05:46:23;;;;;;;11.65;9.75;;;;;;;11.95;100.00;101952.28;5114005;28;20015;-76
2023/04/26 05:48:49;;;;;;;10.93;9.50;;;;;;;12.49;100.00;102026.97;5114764;28;20433;-75
2023/04/26 05:51:14;;;;;;;12.23;9.82;;;;;;;12.45;100.00;102027.81;5114048;28;20041;-75
2023/04/26 05:53:40;;;;;;;12.93;9.80;;;;;;;12.88;100.00;102063.41;5113950;28;20031;-74
2023/04/26 05:56:06;;;;;;;14.15;11.38;;;;;;;12.37;100.00;101993.84;5113781;28;20055;-75
2023/04/26 05:58:32;;;;;;;12.95;11.55;;;;;;;12.30;100.00;101998.09;5113182;28;20089;-73
2023/04/26 06:00:58;;;;;;;13.32;11.65;;;;;;;12.69;100.00;102043.94;5113743;28;20499;-74
2023/04/26 06:03:23;;;;;;;12.45;10.98;;;;;;;12.41;100.00;101987.88;5113868;28;20111;-75
2023/04/26 06:05:49;;;;;;;11.27;9.60;;;;;;;12.62;100.00;102031.16;5113950;28;20134;-75
2023/04/26 06:08:14;;;;;;;10.52;9.07;;;;;;;12.55;100.00;101986.13;5115206;28;20035;-74
2023/04/26 06:10:40;;;;;;;12.63;11.32;;;;;;;13.00;100.00;102019.09;5114909;28;20463;-75
2023/04/26 06:13:05;;;;;;;13.52;11.95;;;;;;;12.95;100.00;101987.66;5113925;28;20463;-76
2023/04/26 06:15:30;;;;;;;12.88;11.55;;;;;;;12.84;100.00;101958.75;5114729;28;20494;-75
2023/04/26 06:17:56;;;;;;;13.02;11.35;;;;;;;13.26;100.00;101973.88;5113896;28;20032;-76
2023/04/26 06:20:22;;;;;;;15.13;11.35;;;;;;;12.73;100.00;101891.63;5113645;28;20028;-74
2023/04/26 06:22:47;;;;;;;11.65;9.35;;;;;;;12.91;100.00;101940.00;5113452;28;20118;-75
2023/04/26 06:25:13;;;;;;;12.00;10.35;;;;;;;13.61;100.00;101992.34;5113363;28;20035;-75
2023/04/26 06:27:38;;;;;;;9.90;8.90;;;;;;;13.35;100.00;101981.44;5113438;28;20053;-74
2023/04/26 06:30:06;;;;;;;10.85;9.15;;;;;;;13.78;100.00;101972.59;5114317;28;20413;-76
2023/04/26 06:32:32;;;;;;;11.13;8.88;;;;;;;13.92;100.00;101941.78;5114080;28;20402;-75
2023/04/26 06:34:57;;;;;;;9.10;8.20;;;;;;;13.90;100.00;101953.75;5114430;28;20032;-77
2023/04/26 06:37:23;;;;;;;9.68;8.45;;;;;;;13.91;100.00;101930.69;5112806;28;20092;-75
2023/04/26 06:39:48;;;;;;;9.30;8.38;;;;;;;14.15;100.00;101901.44;5113239;28;20032;-75
2023/04/26 06:42:13;;;;;;;7.63;6.93;;;;;;;13.59;100.00;101875.63;5113033;28;20024;-76
2023/04/26 06:44:39;;;;;;;7.00;6.30;;;;;;;13.58;100.00;101844.13;5112981;28;20024;-77
2023/04/26 06:47:10;;;;;;;7.85;7.05;;;;;;;13.88;100.00;101804.59;5113972;28;20043;-75
2023/04/26 06:49:35;;;;;;;8.40;7.60;;;;;;;13.53;100.00;101740.25;5114239;28;20111;-74
2023/04/26 06:52:01;;;;;;;10.05;8.15;;;;;;;13.41;100.00;101684.19;5112617;28;20119;-76
2023/04/26 06:54:27;;;;;;;7.90;7.07;;;;;;;13.74;100.00;101676.94;5147184;27;20031;-76
2023/04/26 06:56:53;;;;;;;7.90;7.10;;;;;;;13.33;100.00;101578.69;5112949;28;20031;-76
2023/04/26 06:59:18;;;;;;;17.50;10.90;;;;;;;13.75;100.00;101590.84;5112984;28;20069;-76
2023/04/26 07:01:44;;;;;;;11.65;9.00;;;;;;;13.75;100.00;101560.16;5112629;28;20123;-76
2023/04/26 07:04:09;;;;;;;9.85;8.20;;;;;;;13.62;100.00;101510.13;5147246;27;20032;-76
2023/04/26 07:06:37;;;;;;;8.52;7.72;;;;;;;13.45;100.00;101410.72;5147663;27;20048;-75
2023/04/26 07:09:03;;;;;;;8.60;7.80;;;;;;;14.08;100.00;101474.41;5112812;28;20084;-76
2023/04/26 07:11:29;;;;;;;9.40;8.50;;;;;;;14.20;100.00;101440.91;5112890;28;20023;-76
2023/04/26 07:13:55;;;;;;;8.88;7.97;;;;;;;14.25;100.00;101386.22;5113642;28;20027;-76
2023/04/26 07:16:21;;;;;;;6.47;5.85;;;;;;;14.09;100.00;101317.50;5113632;28;20051;-75
2023/04/26 07:18:47;;;;;;;6.20;5.60;;;;;;;13.71;100.00;101209.22;5114246;28;20027;-76
2023/04/26 07:21:13;;;;;;;7.80;6.70;;;;;;;14.28;100.00;101173.03;5112744;28;20509;-76
2023/04/26 07:23:38;;;;;;;9.25;7.07;;;;;;;14.20;100.00;101111.75;5113989;28;20030;-76
2023/04/26 07:26:04;;;;;;;9.57;7.05;;;;;;;13.78;100.00;100974.78;5113189;28;20478;-78
2023/04/26 07:28:30;;;;;;;8.73;6.25;;;;;;;14.21;100.00;100943.78;5146828;27;20035;-76
2023/04/26 07:30:56;;;;;;;7.60;5.95;;;;;;;14.37;100.00;100889.66;5112558;28;20111;-75
2023/04/26 07:33:21;;;;;;;7.32;6.50;;;;;;;14.75;100.00;100856.09;5113543;28;20118;-75
2023/04/26 07:35:55;;;;;;;6.40;5.80;;;;;;;14.97;100.00;100794.78;5146372;27;20024;-75
2023/04/26 07:38:21;;;;;;;6.70;6.00;;;;;;;15.34;100.00;100759.34;5111545;28;20122;-75
2023/04/26 07:40:46;;;;;;;6.57;5.93;;;;;;;15.07;100.00;100721.88;5112650;28;20102;-75
2023/04/26 07:43:14;;;;;;;5.60;5.10;;;;;;;14.46;100.00;100622.44;5107835;28;20040;-75
2023/04/26 07:45:39;;;;;;;5.85;4.65;;;;;;;14.70;100.00;100640.34;5092836;28;20399;-74
2023/04/26 07:48:05;;;;;;;19.30;10.23;;;;;;;15.01;100.00;100594.03;5092416;28;20032;-75
2023/04/26 07:50:31;;;;;;;5.32;4.60;;;;;;;15.14;100.00;100589.28;5091674;28;20451;-75
2023/04/26 07:52:56;;;;;;;9.68;5.90;;;;;;;15.28;100.00;100500.78;5091689;28;20127;-75
2023/04/26 07:55:21;;;;;;;6.25;5.30;;;;;;;15.36;100.00;100491.06;5092907;28;20045;-76
2023/04/26 07:57:47;;;;;;;7.03;5.20;;;;;;;15.96;100.00;100495.50;5092086;28;20036;-75
2023/04/26 08:00:14;;;;;;;5.40;4.60;;;;;;;16.00;100.00;100430.34;5091718;28;20020;-76
2023/04/26 08:02:40;;;;;;;8.77;4.80;;;;;;;17.86;100.00;100465.34;5091309;28;20055;-76
2023/04/26 08:05:06;;;;;;;5.05;4.32;;;;;;;18.15;100.00;100424.34;5091498;28;20120;-77
2023/04/26 08:07:32;;;;;;;5.05;4.60;;;;;;;17.87;100.00;100382.06;5094904;28;20027;-75
2023/04/26 08:09:57;;;;;;;4.90;4.40;;;;;;;17.07;100.00;100266.16;5095373;28;20026;-75
2023/04/26 08:12:22;;;;;;;4.63;4.22;;;;;;;16.25;100.00;100277.00;5112841;28;20024;-75
2023/04/26 08:14:48;;;;;;;5.07;3.90;;;;;;;16.22;100.00;100187.31;5094376;28;20031;-77
2023/04/26 08:17:13;;;;;;;4.72;4.32;;;;;;;17.84;100.00;100203.00;5094848;28;20490;-76
2023/04/26 08:19:40;;;;;;;4.32;3.92;;;;;;;16.99;100.00;100169.84;5112513;28;20068;-78
2023/04/26 08:22:06;;;;;;;4.55;4.15;;;;;;;17.01;100.00;100119.22;5128718;27;20032;-76
2023/04/26 08:24:31;;;;;;;5.15;4.00;;;;;;;16.74;100.00;100139.44;5112639;28;20520;-76
2023/04/26 08:26:58;;;;;;;6.53;4.25;;;;;;;16.96;100.00;100116.03;5111719;28;20028;-76
2023/04/26 08:29:25;;;;;;;5.75;4.20;;;;;;;17.28;100.00;100095.47;5112911;28;20027;-76
2023/04/26 08:31:51;;;;;;;4.93;4.10;;;;;;;16.98;100.00;100025.16;5094490;28;20511;-76
2023/04/26 08:34:16;;;;;;;4.40;4.00;;;;;;;17.08;100.00;100044.31;5093712;28;20055;-75
2023/04/26 08:36:41;;;;;;;4.85;4.38;;;;;;;17.44;100.00;99979.78;5094045;28;20114;-77
2023/04/26 08:39:08;;;;;;;6.97;6.07;;;;;;;17.08;100.00;99986.94;5112212;28;20051;-76
2023/04/26 08:41:41;;;;;;;6.10;4.10;;;;;;;17.87;100.00;99976.47;5094195;28;20074;-75
2023/04/26 08:44:23;;;;;;;7.38;5.18;;;;;;;17.06;100.00;99958.78;5113114;28;20030;-76
2023/04/26 08:47:13;;;;;;;4.95;4.45;;;;;;;17.83;100.00;99944.13;5092567;28;20072;-76
2023/04/26 08:49:42;;;;;;;4.22;3.85;;;;;;;17.43;100.00;99923.34;5112673;28;20032;-81
2023/04/26 08:52:10;;;;;;;5.20;4.07;;;;;;;17.01;100.00;99901.72;5112443;28;20028;-76
2023/04/26 08:54:37;;;;;;;5.13;4.25;;;;;;;17.59;100.00;99901.81;5094117;28;20038;-76
2023/04/26 08:57:03;;;;;;;10.57;9.05;;;;;;;17.50;100.00;99883.53;5112355;28;20061;-76
2023/04/26 08:59:32;;;;;;;5.85;4.40;;;;;;;17.28;100.00;99820.50;5111814;28;20114;-76
2023/04/26 09:01:59;;;;;;;5.43;4.70;;;;;;;16.70;100.00;99796.44;5112300;28;20032;-76
2023/04/26 09:04:25;;;;;;;4.97;4.25;;;;;;;17.52;100.00;99778.88;5093948;28;20035;-76
2023/04/26 09:06:52;;;;;;;4.00;3.60;;;;;;;17.53;100.00;99845.59;5093518;28;20055;-75
2023/04/26 09:09:19;;;;;;;8.57;5.55;;;;;;;17.73;100.00;99831.56;5112218;28;20125;-75
2023/04/26 09:12:10;;;;;;;6.45;4.72;;;;;;;19.38;100.00;99830.50;5111758;28;20077;-73
2023/04/26 09:14:37;;;;;;;9.82;5.60;;;;;;;18.15;100.00;99808.41;5112973;28;20054;-77
2023/04/26 09:17:03;;;;;;;4.40;3.80;;;;;;;18.70;100.00;99816.09;5116336;28;20062;-75
2023/04/26 09:19:36;;;;;;;4.88;3.85;;;;;;;18.50;100.00;99811.41;4772604;27;10000376;-77
2023/04/26 09:22:02;;;;;;;3.60;3.30;;;;;;;18.83;100.00;99719.06;5134008;27;20482;-76
2023/04/26 09:24:45;;;;;;;3.67;3.38;;;;;;;19.62;100.00;99753.25;5134786;27;20027;-79
2023/04/26 09:27:11;;;;;;;6.85;3.70;;;;;;;19.56;100.00;99740.75;5116331;27;20031;-77
2023/04/26 09:29:36;;;;;;;5.30;3.63;;;;;;;19.99;100.00;99729.09;5135069;27;20033;-76
2023/04/26 09:32:02;;;;;;;3.70;3.33;;;;;;;19.15;100.00;99722.09;5115663;27;20084;-74
2023/04/26 09:34:29;;;;;;;3.78;3.47;;;;;;;19.26;100.00;99681.75;5115814;27;20031;-76
2023/04/26 09:36:55;;;;;;;4.18;3.35;;;;;;;19.99;100.00;99637.94;5133636;27;20515;-77
2023/04/26 09:39:39;;;;;;;5.22;3.45;;;;;;;20.45;100.00;99631.94;5113377;27;20106;-74
2023/04/26 09:42:08;;;;;;;6.72;3.40;;;;;;;19.92;100.00;99549.00;5122383;27;20023;-74
2023/04/26 09:44:34;;;;;;;4.20;3.28;;;;;;;20.13;100.00;99506.94;5112067;28;20421;-73
2023/04/26 09:47:11;;;;;;;3.40;3.10;;;;;;;19.97;100.00;99506.44;5099095;27;20027;-73
2023/04/26 09:49:47;;;;;;;4.07;3.25;;;;;;;19.52;100.00;99469.34;5170917;27;20488;-73
2023/04/26 09:52:13;;;;;;;3.17;2.88;;;;;;;20.28;100.00;99242.44;5138534;27;20082;-76
2023/04/26 09:54:53;;;;;;;6.47;2.90;;;;;;;19.76;100.00;99250.88;5156821;27;20596;-73
2023/04/26 09:57:21;;;;;;;3.97;3.10;;;;;;;19.10;100.00;99242.22;5138189;27;20035;-73
2023/04/26 09:59:55;;;;;;;4.55;2.72;;;;;;;19.26;100.00;99225.50;5137320;27;20556;-73
2023/04/26 10:02:28;;;;;;;3.85;2.50;;;;;;;19.39;100.00;99218.50;5137814;27;20034;-73
2023/04/26 10:04:55;;;;;;;4.70;2.33;;;;;;;19.04;100.00;99226.28;5155848;27;20050;-74
2023/04/26 10:07:22;;;;;;;4.05;2.72;;;;;;;18.30;100.00;99194.91;5133643;27;20047;-74
2023/04/26 10:09:49;;;;;;;5.35;3.20;;;;;;;18.14;100.00;99154.00;5133652;27;20030;-74
2023/04/26 10:12:16;;;;;;;2.95;2.10;;;;;;;18.37;100.00;99183.22;5134056;27;20027;-75
2023/04/26 10:14:43;;;;;;;3.13;2.63;;;;;;;17.97;100.00;99194.72;5135322;27;20035;-74
2023/04/26 10:17:13;;;;;;;2.85;2.58;;;;;;;19.31;100.00;99329.09;5135593;27;20030;-73
2023/04/26 10:19:42;;;;;;;3.00;2.50;;;;;;;19.15;100.00;99382.72;5135308;27;20034;-73
2023/04/26 10:22:18;;;;;;;3.10;2.80;;;;;;;18.91;100.00;99452.28;5134502;27;20135;-73
2023/04/26 10:24:44;;;;;;;4.90;3.47;;;;;;;19.94;100.00;99552.28;5134624;27;20030;-73
2023/04/26 10:27:10;;;;;;;7.60;4.78;;;;;;;19.91;100.00;99573.97;5133574;27;20405;-74
2023/04/26 10:30:12;;;;;;;5.38;3.55;;;;;;;20.11;100.00;99637.88;5135302;27;20023;-73
2023/04/26 10:32:56;;;;;;;5.82;4.13;;;;;;;19.90;100.00;99649.75;5035198;28;20036;-73
2023/04/26 10:35:22;;;;;;;3.35;3.05;;;;;;;19.83;100.00;99664.84;5129135;27;20432;-73
2023/04/26 10:38:00;;;;;;;4.63;3.50;;;;;;;20.09;100.00;99669.91;5133470;27;20035;-73
2023/04/26 10:40:31;;;;;;;4.18;3.78;;;;;;;19.20;100.00;99658.16;5133094;27;20039;-73
2023/04/26 10:43:15;;;;;;;4.05;2.90;;;;;;;20.40;100.00;99648.72;5112940;28;20122;-73
2023/04/26 10:45:41;;;;;;;3.38;2.92;;;;;;;21.28;100.00;99638.50;5112959;28;20130;-74
2023/04/26 10:48:17;;;;;;;4.35;2.80;;;;;;;19.79;100.00;99528.41;5113072;28;20035;-74
2023/04/26 10:51:01;;;;;;;2.70;2.50;;;;;;;20.06;100.00;99608.19;5112841;28;20027;-74
2023/04/26 10:53:47;;;;;;;4.75;2.60;;;;;;;19.54;100.00;99529.38;5112928;28;20099;-73
2023/04/26 10:56:30;;;;;;;2.97;2.67;;;;;;;19.46;100.00;99464.66;5113302;28;20032;-74
2023/04/26 10:59:20;;;;;;;4.72;2.80;;;;;;;19.93;100.00;99453.41;5114415;28;20032;-73
2023/04/26 11:01:45;;;;;;;4.45;2.70;;;;;;;18.45;100.00;99381.75;5112680;28;20030;-73
2023/04/26 11:04:11;;;;;;;4.45;2.55;;;;;;;18.31;100.00;99316.66;5113906;28;20027;-74
2023/04/26 11:06:53;;;;;;;3.47;3.00;;;;;;;19.33;100.00;99422.63;5112424;28;20051;-73
2023/04/26 11:09:47;;;;;;;6.38;4.50;;;;;;;19.18;100.00;99426.28;5113395;28;20044;-75
2023/04/26 11:12:14;;;;;;;3.15;2.85;;;;;;;18.30;100.00;99408.53;5112271;28;20418;-74